KFXE/FXE METAR and TAF weather

Enter ICAO airport designator
Station Type Date Time Source
KFXE METAR 2022/08/12 13:53 UTC NOAA

KFXE 121353Z 10011KT 10SM CLR 32/22 A3007 RMK AO2 SLP183 T03170217


Station Type Date Time Source
KFXE Decoded METAR 2022/08/12 13:53 UTC NOAA

FORT LAUDERDALE EXECUTIVE, FL, United States (KFXE) 26-12N 080-11W 6M
Aug 12, 2022 - 09:53 AM EDT / 2022.08.12 1353 UTC
Wind: from the E (100 degrees) at 13 MPH (11 KT):0
Visibility: 10 mile(s):0
Sky conditions: clear
Temperature: 89.1 F (31.7 C)
Heat index: 95.2 F (35.1 C):1
Dew Point: 71.1 F (21.7 C)
Relative Humidity: 55%
Pressure (altimeter): 30.07 in. Hg (1018 hPa)
ob: KFXE 121353Z 10011KT 10SM CLR 32/22 A3007 RMK AO2 SLP183 T03170217
cycle: 14

Station Type Date Time Source
KFXE TAF 2022/08/12 12:24 UTC NOAA

TAF KFXE 121122Z 1212/1312 VRB06KT P6SM SCT030 SCT250
FM121500 10008KT P6SM FEW030 SCT250
FM121800 10011KT P6SM VCTS SCT030CB SCT250
FM122100 11009KT P6SM VCSH SCT035 BKN250
FM130300 VRB05KT P6SM FEW025 SCT250

Example: see airport list